createdAt,value
2018-08-03T00:00:12.265Z,101749.91
2018-08-03T00:02:39.486Z,101749.44
2018-08-03T00:05:07.234Z,101743.36
2018-08-03T00:07:35.030Z,101743.73
2018-08-03T00:10:02.901Z,101744.53
2018-08-03T00:12:31.155Z,101741.78
2018-08-03T00:14:59.227Z,101736.64
2018-08-03T00:17:27.674Z,101736.02
2018-08-03T00:19:54.976Z,101740.11
2018-08-03T00:22:22.187Z,101734.50
2018-08-03T00:24:49.368Z,101734.28
2018-08-03T00:27:16.600Z,101739.31
2018-08-03T00:29:43.787Z,101736.70
2018-08-03T00:32:10.932Z,101744.91
2018-08-03T00:34:38.228Z,101743.31
2018-08-03T00:37:05.730Z,101749.14
2018-08-03T00:39:33.466Z,101746.64
2018-08-03T00:42:01.016Z,101743.31
2018-08-03T00:44:29.243Z,101744.82
2018-08-03T00:46:57.170Z,101749.84
2018-08-03T00:49:25.416Z,101753.45
2018-08-03T00:51:52.607Z,101749.04
2018-08-03T00:54:19.720Z,101762.48
2018-08-03T00:56:46.968Z,101763.27
2018-08-03T00:59:14.081Z,101765.77
2018-08-03T01:01:41.189Z,101765.52
2018-08-03T01:04:08.542Z,101767.86
2018-08-03T01:06:36.391Z,101771.16
2018-08-03T01:09:07.923Z,101774.91
2018-08-03T01:11:35.936Z,101774.52
2018-08-03T01:14:03.460Z,101780.39
2018-08-03T01:16:34.546Z,101776.38
2018-08-03T01:19:02.047Z,101781.56
2018-08-03T01:21:30.031Z,101776.31
2018-08-03T01:23:58.574Z,101770.73
2018-08-03T01:26:26.694Z,101767.80
2018-08-03T01:28:53.919Z,101766.69
2018-08-03T01:31:21.063Z,101757.00
2018-08-03T01:33:48.163Z,101767.36
2018-08-03T01:36:15.291Z,101773.67
2018-08-03T01:38:42.550Z,101776.07
2018-08-03T01:41:09.744Z,101770.62
2018-08-03T01:43:37.186Z,101772.89
2018-08-03T01:46:04.940Z,101773.55
2018-08-03T01:48:32.406Z,101769.64
2018-08-03T01:50:59.950Z,101775.45
2018-08-03T01:53:28.349Z,101772.44
2018-08-03T01:55:55.890Z,101769.03
2018-08-03T01:58:23.050Z,101765.59
2018-08-03T02:00:50.655Z,101766.11
2018-08-03T02:03:18.847Z,101769.25
2018-08-03T02:05:46.027Z,101769.49
2018-08-03T02:08:13.174Z,101770.36
2018-08-03T02:10:40.287Z,101778.84
2018-08-03T02:13:07.578Z,101773.97
2018-08-03T02:15:34.986Z,101773.73
2018-08-03T02:18:02.359Z,101773.78
2018-08-03T02:20:29.973Z,101774.31
2018-08-03T02:22:57.892Z,101775.19
2018-08-03T02:25:25.516Z,101775.81
2018-08-03T02:27:52.685Z,101784.59
2018-08-03T02:30:19.896Z,101780.99
2018-08-03T02:32:47.035Z,101780.41
2018-08-03T02:35:14.184Z,101784.92
2018-08-03T02:37:45.157Z,101785.91
2018-08-03T02:40:12.341Z,101786.19
2018-08-03T02:42:39.503Z,101784.95
2018-08-03T02:45:06.884Z,101790.53
2018-08-03T02:47:34.537Z,101791.67
2018-08-03T02:50:01.979Z,101793.35
2018-08-03T02:52:29.841Z,101788.64
2018-08-03T02:54:57.590Z,101786.70
2018-08-03T02:57:25.026Z,101785.61
2018-08-03T02:59:52.516Z,101787.78
2018-08-03T03:02:19.687Z,101788.98
2018-08-03T03:04:46.821Z,101787.81
2018-08-03T03:07:14.337Z,101793.95
2018-08-03T03:09:41.442Z,101787.98
2018-08-03T03:12:08.756Z,101789.98
2018-08-03T03:14:36.407Z,101783.83
2018-08-03T03:17:04.110Z,101783.63
2018-08-03T03:19:31.798Z,101794.86
2018-08-03T03:22:00.125Z,101783.92
2018-08-03T03:24:28.247Z,101790.34
2018-08-03T03:26:55.748Z,101787.27
2018-08-03T03:29:23.034Z,101786.86
2018-08-03T03:31:50.203Z,101788.59
2018-08-03T03:34:17.334Z,101780.11
2018-08-03T03:36:44.493Z,101776.30
2018-08-03T03:39:12.955Z,101777.57
2018-08-03T03:41:40.147Z,101782.31
2018-08-03T03:44:07.419Z,101781.91
2018-08-03T03:46:35.419Z,101787.53
2018-08-03T03:49:02.936Z,101795.09
2018-08-03T03:51:30.518Z,101785.33
2018-08-03T03:53:59.166Z,101786.33
2018-08-03T03:56:27.665Z,101789.40
2018-08-03T03:58:54.960Z,101791.67
2018-08-03T04:01:22.119Z,101791.67
2018-08-03T04:03:49.339Z,101794.58
2018-08-03T04:06:16.472Z,101792.38
2018-08-03T04:08:43.600Z,101801.99
2018-08-03T04:11:10.868Z,101798.84
2018-08-03T04:13:38.245Z,101796.25
2018-08-03T04:16:05.834Z,101799.81
2018-08-03T04:18:33.445Z,101792.98
2018-08-03T04:21:01.036Z,101785.98
2018-08-03T04:23:30.755Z,101791.09
2018-08-03T04:25:59.254Z,101789.61
2018-08-03T04:28:27.746Z,101783.45
2018-08-03T04:30:55.079Z,101780.00
2018-08-03T04:33:22.274Z,101786.62
2018-08-03T04:35:49.450Z,101780.50
2018-08-03T04:38:16.612Z,101783.64
2018-08-03T04:40:43.761Z,101779.30
2018-08-03T04:43:10.937Z,101789.29
2018-08-03T04:45:38.256Z,101784.19
2018-08-03T04:48:06.041Z,101782.98
2018-08-03T04:50:33.588Z,101783.62
2018-08-03T04:53:01.151Z,101786.30
2018-08-03T04:55:29.066Z,101791.86
2018-08-03T04:57:57.830Z,101796.75
2018-08-03T05:00:25.553Z,101799.50
2018-08-03T05:02:52.730Z,101805.39
2018-08-03T05:05:20.260Z,101809.17
2018-08-03T05:07:47.624Z,101816.55
2018-08-03T05:10:15.036Z,101822.38
2018-08-03T05:12:42.828Z,101821.66
2018-08-03T05:15:10.334Z,101830.85
2018-08-03T05:17:37.700Z,101830.58
2018-08-03T05:20:05.639Z,101833.66
2018-08-03T05:22:33.097Z,101830.21
2018-08-03T05:25:00.905Z,101828.50
2018-08-03T05:27:28.389Z,101834.75
2018-08-03T05:29:56.358Z,101831.39
2018-08-03T05:32:23.603Z,101829.34
2018-08-03T05:34:51.286Z,101831.34
2018-08-03T05:37:19.008Z,101832.05
2018-08-03T05:39:46.328Z,101826.05
2018-08-03T05:42:13.540Z,101825.33
2018-08-03T05:44:41.177Z,101825.27
2018-08-03T05:47:08.332Z,101831.96
2018-08-03T05:49:36.939Z,101829.75
2018-08-03T05:52:04.380Z,101826.27
2018-08-03T05:54:32.334Z,101824.69
2018-08-03T05:57:00.633Z,101829.09
2018-08-03T05:59:29.104Z,101824.20
2018-08-03T06:01:57.511Z,101829.14
2018-08-03T06:04:24.914Z,101832.64
2018-08-03T06:06:52.655Z,101834.76
2018-08-03T06:09:19.796Z,101837.57
2018-08-03T06:11:47.892Z,101835.41
2018-08-03T06:14:15.892Z,101833.98
2018-08-03T06:16:43.205Z,101840.86
2018-08-03T06:19:10.627Z,101837.02
2018-08-03T06:21:38.393Z,101841.27
2018-08-03T06:24:06.839Z,101842.92
2018-08-03T06:26:35.313Z,101842.47
2018-08-03T06:29:03.107Z,101842.11
2018-08-03T06:31:31.047Z,101840.66
2018-08-03T06:33:59.693Z,101847.66
2018-08-03T06:36:27.139Z,101843.44
2018-08-03T06:38:54.295Z,101838.84
2018-08-03T06:41:21.853Z,101843.33
2018-08-03T06:43:48.995Z,101846.02
2018-08-03T06:46:16.134Z,101846.46
2018-08-03T06:48:43.527Z,101842.70
2018-08-03T06:51:10.928Z,101841.35
2018-08-03T06:53:38.652Z,101826.20
2018-08-03T06:56:06.420Z,101833.33
2018-08-03T06:58:34.211Z,101825.49
2018-08-03T07:01:02.066Z,101829.10
2018-08-03T07:03:30.128Z,101822.00
2018-08-03T07:05:58.035Z,101826.24
2018-08-03T07:08:25.841Z,101824.96
2018-08-03T07:10:52.984Z,101826.24
2018-08-03T07:13:20.174Z,101820.37
2018-08-03T07:15:47.343Z,101824.58
2018-08-03T07:18:14.500Z,101830.95
2018-08-03T07:20:41.929Z,101824.31
2018-08-03T07:23:09.027Z,101824.41
2018-08-03T07:25:36.524Z,101822.11
2018-08-03T07:28:04.314Z,101820.72
2018-08-03T07:30:31.626Z,101822.69
2018-08-03T07:32:59.530Z,101823.65
2018-08-03T07:35:29.733Z,101824.55
2018-08-03T07:37:59.329Z,101814.69
2018-08-03T07:40:27.249Z,101813.95
2018-08-03T07:42:57.548Z,101819.06
2018-08-03T07:45:25.637Z,101819.58
2018-08-03T07:47:52.836Z,101813.00
2018-08-03T07:50:20.032Z,101816.45
2018-08-03T07:52:47.428Z,101809.48
2018-08-03T07:55:14.631Z,101815.22
2018-08-03T07:57:41.931Z,101812.86
2018-08-03T08:00:09.225Z,101812.52
2018-08-03T08:02:37.016Z,101807.97
2018-08-03T08:05:04.515Z,101813.41
2018-08-03T08:07:32.267Z,101811.19
2018-08-03T08:10:00.250Z,101814.39
2018-08-03T08:12:28.850Z,101825.38
2018-08-03T08:14:57.969Z,101824.16
2018-08-03T08:17:25.946Z,101818.86
2018-08-03T08:19:53.175Z,101814.36
2018-08-03T08:22:20.325Z,101808.03
2018-08-03T08:24:47.447Z,101816.10
2018-08-03T08:27:14.762Z,101817.95
2018-08-03T08:29:41.894Z,101815.89
2018-08-03T08:32:09.134Z,101816.67
2018-08-03T08:34:36.847Z,101812.11
2018-08-03T08:37:04.821Z,101816.97
2018-08-03T08:39:32.626Z,101816.25
2018-08-03T08:42:00.463Z,101818.23
2018-08-03T08:44:30.390Z,101810.87
2018-08-03T08:46:58.791Z,101809.77
2018-08-03T08:49:26.858Z,101810.84
2018-08-03T08:51:54.180Z,101806.84
2018-08-03T08:54:21.344Z,101805.89
2018-08-03T08:56:48.492Z,101807.27
2018-08-03T08:59:15.635Z,101790.91
2018-08-03T09:01:42.807Z,101789.80
2018-08-03T09:04:09.940Z,101788.77
2018-08-03T09:06:37.162Z,101791.25
2018-08-03T09:09:06.952Z,101790.94
2018-08-03T09:11:38.759Z,101791.12
2018-08-03T09:14:06.078Z,101782.09
2018-08-03T09:16:33.671Z,101785.94
2018-08-03T09:19:01.659Z,101788.56
2018-08-03T09:21:29.424Z,101784.83
2018-08-03T09:23:57.118Z,101782.28
2018-08-03T09:26:24.462Z,101781.56
2018-08-03T09:28:51.872Z,101782.58
2018-08-03T09:31:19.516Z,101777.54
2018-08-03T09:33:57.288Z,101766.42
2018-08-03T09:36:24.509Z,101769.67
2018-08-03T09:38:51.859Z,101768.00
2018-08-03T09:41:19.125Z,101758.54
2018-08-03T09:43:46.428Z,101756.81
2018-08-03T09:46:13.697Z,101759.23
2018-08-03T09:48:41.151Z,101752.33
2018-08-03T09:51:08.806Z,101750.34
2018-08-03T09:53:36.205Z,101749.19
2018-08-03T09:56:03.670Z,101748.66
2018-08-03T09:58:31.588Z,101744.28
2018-08-03T10:01:05.384Z,101746.06
2018-08-03T10:03:33.492Z,101740.65
2018-08-03T10:06:00.976Z,101740.62
2018-08-03T10:08:29.017Z,101737.89
2018-08-03T10:10:57.532Z,101740.52
2018-08-03T10:13:24.875Z,101739.70
2018-08-03T10:15:52.174Z,101731.38
2018-08-03T10:18:19.327Z,101731.06
2018-08-03T10:20:46.504Z,101725.54
2018-08-03T10:23:13.629Z,101727.87
2018-08-03T10:25:40.769Z,101730.48
2018-08-03T10:28:08.124Z,101729.94
2018-08-03T10:30:35.516Z,101729.11
2018-08-03T10:33:03.118Z,101723.74
2018-08-03T10:35:31.181Z,101721.05
2018-08-03T10:38:00.279Z,101721.69
2018-08-03T10:40:27.701Z,101713.95
2018-08-03T10:42:55.927Z,101709.41
2018-08-03T10:45:23.776Z,101715.21
2018-08-03T10:47:51.865Z,101708.34
2018-08-03T10:50:19.918Z,101707.17
2018-08-03T10:52:47.049Z,101700.98
2018-08-03T10:55:14.176Z,101696.28
2018-08-03T10:57:41.695Z,101698.48
2018-08-03T11:00:09.621Z,101700.15
2018-08-03T11:02:36.997Z,101695.70
2018-08-03T11:05:04.697Z,101692.17
2018-08-03T11:07:32.638Z,101692.72
2018-08-03T11:10:00.733Z,101684.09
2018-08-03T11:12:29.615Z,101684.09
2018-08-03T11:14:58.455Z,101687.42
2018-08-03T11:17:26.932Z,101685.81
2018-08-03T11:19:56.149Z,101680.72
2018-08-03T11:22:23.958Z,101683.08
2018-08-03T11:24:51.347Z,101680.67
2018-08-03T11:27:18.528Z,101680.77
2018-08-03T11:29:45.786Z,101682.29
2018-08-03T11:32:12.874Z,101677.09
2018-08-03T11:34:40.376Z,101674.85
2018-08-03T11:37:07.597Z,101675.81
2018-08-03T11:39:35.336Z,101668.81
2018-08-03T11:42:03.818Z,101673.60
2018-08-03T11:44:31.753Z,101670.23
2018-08-03T11:46:59.796Z,101671.42
2018-08-03T11:49:27.929Z,101669.90
2018-08-03T11:51:56.569Z,101662.27
2018-08-03T11:54:24.835Z,101661.05
2018-08-03T11:56:52.403Z,101651.16
2018-08-03T11:59:19.744Z,101652.92
2018-08-03T12:01:47.001Z,101651.34
2018-08-03T12:04:14.131Z,101649.09
2018-08-03T12:06:41.400Z,101649.78
2018-08-03T12:09:08.877Z,101651.36
2018-08-03T12:11:36.495Z,101644.19
2018-08-03T12:14:04.411Z,101642.97
2018-08-03T12:16:31.880Z,101639.75
2018-08-03T12:18:59.780Z,101632.75
2018-08-03T12:21:28.173Z,101627.34
2018-08-03T12:23:56.705Z,101625.33
2018-08-03T12:26:24.576Z,101630.77
2018-08-03T12:28:51.789Z,101633.82
2018-08-03T12:31:18.981Z,101626.99
2018-08-03T12:33:46.232Z,101628.41
2018-08-03T12:36:13.502Z,101627.84
2018-08-03T12:38:40.680Z,101625.12
2018-08-03T12:41:08.004Z,101617.11
2018-08-03T12:43:36.281Z,101607.81
2018-08-03T12:46:04.115Z,101604.06
2018-08-03T12:48:31.737Z,101604.54
2018-08-03T12:50:59.729Z,101600.72
2018-08-03T12:53:27.860Z,101597.50
2018-08-03T12:55:56.644Z,101582.55
2018-08-03T12:58:24.601Z,101584.02
2018-08-03T13:00:51.886Z,101586.67
2018-08-03T13:03:19.172Z,101584.39
2018-08-03T13:05:46.640Z,101581.10
2018-08-03T13:08:14.066Z,101585.05
2018-08-03T13:10:47.573Z,101581.83
2018-08-03T13:13:14.953Z,101578.59
2018-08-03T13:15:42.100Z,101577.57
2018-08-03T13:18:09.364Z,101576.58
2018-08-03T13:20:36.983Z,101574.59
2018-08-03T13:23:04.775Z,101565.36
2018-08-03T13:25:32.796Z,101564.38
2018-08-03T13:28:00.914Z,101568.70
2018-08-03T13:30:29.357Z,101563.86
2018-08-03T13:32:58.403Z,101565.00
2018-08-03T13:35:26.902Z,101560.27
2018-08-03T13:37:55.913Z,101553.64
2018-08-03T13:40:24.591Z,101556.34
2018-08-03T13:42:51.904Z,101557.38
2018-08-03T13:45:19.064Z,101547.33
2018-08-03T13:47:46.292Z,101546.92
2018-08-03T13:50:13.476Z,101529.55
2018-08-03T13:52:40.631Z,101533.33
2018-08-03T13:55:09.033Z,101530.91
2018-08-03T13:57:37.140Z,101525.14
2018-08-03T14:00:06.832Z,101519.01
2018-08-03T14:02:34.330Z,101519.53
2018-08-03T14:05:01.480Z,101517.98
2018-08-03T14:07:28.663Z,101517.52
2018-08-03T14:09:55.847Z,101509.44
2018-08-03T14:12:23.101Z,101510.66
2018-08-03T14:14:50.409Z,101508.78
2018-08-03T14:17:17.603Z,101507.89
2018-08-03T14:19:45.245Z,101504.32
2018-08-03T14:22:13.367Z,101507.76
2018-08-03T14:24:41.372Z,101502.62
2018-08-03T14:27:09.293Z,101500.88
2018-08-03T14:29:37.456Z,101502.87
2018-08-03T14:32:05.710Z,101492.26
2018-08-03T14:34:34.391Z,101490.94
2018-08-03T14:37:01.588Z,101488.08
2018-08-03T14:39:28.788Z,101487.92
2018-08-03T14:41:56.045Z,101479.61
2018-08-03T14:44:23.185Z,101472.61
2018-08-03T14:46:50.383Z,101475.72
2018-08-03T14:49:17.679Z,101473.20
2018-08-03T14:51:45.293Z,101469.14
2018-08-03T14:54:12.986Z,101473.95
2018-08-03T14:56:40.682Z,101469.12
2018-08-03T14:59:15.452Z,101471.84
2018-08-03T15:01:43.233Z,101465.33
2018-08-03T15:04:11.008Z,101461.36
2018-08-03T15:06:39.137Z,101461.02
2018-08-03T15:09:08.881Z,101462.86
2018-08-03T15:11:38.912Z,101456.20
2018-08-03T15:14:07.004Z,101446.01
2018-08-03T15:16:34.836Z,101447.48
2018-08-03T15:19:02.290Z,101445.25
2018-08-03T15:21:29.416Z,101445.80
2018-08-03T15:23:56.668Z,101450.05
2018-08-03T15:26:24.222Z,101446.74
2018-08-03T15:28:51.336Z,101444.50
2018-08-03T15:31:18.584Z,101439.99
2018-08-03T15:33:45.724Z,101436.57
2018-08-03T15:36:12.880Z,101431.17
2018-08-03T15:38:40.162Z,101432.20
2018-08-03T15:41:07.980Z,101432.25
2018-08-03T15:43:35.557Z,101434.35
2018-08-03T15:46:03.461Z,101427.68
2018-08-03T15:48:31.402Z,101427.50
2018-08-03T15:50:59.178Z,101426.45
2018-08-03T15:53:27.161Z,101421.38
2018-08-03T15:55:54.291Z,101429.19
2018-08-03T15:58:21.423Z,101427.67
2018-08-03T16:00:48.594Z,101426.75
2018-08-03T16:03:15.744Z,101422.89
2018-08-03T16:05:42.912Z,101411.06
2018-08-03T16:08:10.489Z,101411.22
2018-08-03T16:10:38.130Z,101408.64
2018-08-03T16:13:07.058Z,101403.42
2018-08-03T16:15:35.886Z,101405.47
2018-08-03T16:18:03.132Z,101412.84
2018-08-03T16:20:30.307Z,101417.50
2018-08-03T16:22:57.488Z,101410.31
2018-08-03T16:25:24.617Z,101411.86
2018-08-03T16:27:52.840Z,101409.42
2018-08-03T16:30:20.247Z,101403.55
2018-08-03T16:32:47.860Z,101408.14
2018-08-03T16:35:15.540Z,101402.98
2018-08-03T16:37:43.335Z,101407.45
2018-08-03T16:40:11.176Z,101399.67
2018-08-03T16:42:39.675Z,101398.02
2018-08-03T16:45:08.831Z,101396.81
2018-08-03T16:47:37.182Z,101394.55
2018-08-03T16:50:06.825Z,101390.38
2018-08-03T16:52:34.077Z,101390.18
2018-08-03T16:55:01.321Z,101383.96
2018-08-03T16:57:28.516Z,101383.28
2018-08-03T16:59:55.798Z,101389.02
2018-08-03T17:02:23.590Z,101385.30
2018-08-03T17:04:51.370Z,101380.41
2018-08-03T17:07:19.356Z,101384.59
2018-08-03T17:09:48.529Z,101382.13
2018-08-03T17:12:16.429Z,101371.59
2018-08-03T17:14:44.769Z,101369.20
2018-08-03T17:17:13.503Z,101369.95
2018-08-03T17:19:40.932Z,101366.91
2018-08-03T17:22:08.272Z,101371.23
2018-08-03T17:24:35.454Z,101376.66
2018-08-03T17:27:02.636Z,101364.01
2018-08-03T17:29:29.795Z,101370.10
2018-08-03T17:31:57.065Z,101369.17
2018-08-03T17:34:24.644Z,101364.05
2018-08-03T17:36:52.468Z,101362.69
2018-08-03T17:39:20.334Z,101362.11
2018-08-03T17:41:48.350Z,101363.15
2018-08-03T17:44:16.930Z,101363.27
2018-08-03T17:46:45.784Z,101362.03
2018-08-03T17:49:14.560Z,101364.89
2018-08-03T17:51:42.888Z,101363.28
2018-08-03T17:54:12.779Z,101361.63
2018-08-03T17:56:40.069Z,101362.26
2018-08-03T17:59:07.367Z,101370.11
2018-08-03T18:01:34.519Z,101365.56
2018-08-03T18:04:01.825Z,101368.34
2018-08-03T18:06:29.043Z,101374.16
2018-08-03T18:08:56.434Z,101368.93
2018-08-03T18:11:24.154Z,101370.47
2018-08-03T18:13:51.678Z,101375.20
2018-08-03T18:16:19.408Z,101374.17
2018-08-03T18:18:47.443Z,101374.22
2018-08-03T18:21:16.849Z,101373.62
2018-08-03T18:23:45.333Z,101375.16
2018-08-03T18:26:13.561Z,101378.50
2018-08-03T18:28:44.375Z,101373.02
2018-08-03T18:31:11.856Z,101380.06
2018-08-03T18:33:39.278Z,101384.33
2018-08-03T18:36:06.433Z,101382.87
2018-08-03T18:38:33.605Z,101381.89
2018-08-03T18:41:00.784Z,101391.84
2018-08-03T18:43:27.936Z,101390.95
2018-08-03T18:45:56.204Z,101388.14
2018-08-03T18:48:23.874Z,101391.45
2018-08-03T18:50:51.552Z,101393.00
2018-08-03T18:53:19.557Z,101397.02
2018-08-03T18:55:47.738Z,101394.40
2018-08-03T18:58:16.917Z,101395.38
2018-08-03T19:00:45.388Z,101401.47
2018-08-03T19:03:13.940Z,101400.70
2018-08-03T19:05:41.118Z,101402.76
2018-08-03T19:08:08.386Z,101406.48
2018-08-03T19:10:35.600Z,101407.77
2018-08-03T19:13:02.859Z,101410.67
2018-08-03T19:15:30.040Z,101417.28
2018-08-03T19:17:57.233Z,101409.87
2018-08-03T19:20:24.661Z,101417.80
2018-08-03T19:22:52.322Z,101415.08
2018-08-03T19:25:20.356Z,101411.82
2018-08-03T19:27:48.221Z,101412.00
2018-08-03T19:30:16.517Z,101401.39
2018-08-03T19:32:44.485Z,101403.42
2018-08-03T19:35:12.431Z,101406.87
2018-08-03T19:37:39.689Z,101410.78
2018-08-03T19:40:07.193Z,101410.37
2018-08-03T19:42:34.376Z,101411.84
2018-08-03T19:45:01.556Z,101408.47
2018-08-03T19:47:28.816Z,101403.14
2018-08-03T19:49:56.541Z,101403.89
2018-08-03T19:52:24.193Z,101398.05
2018-08-03T19:54:51.722Z,101410.79
2018-08-03T19:57:19.428Z,101411.42
2018-08-03T19:59:47.450Z,101412.44
2018-08-03T20:02:16.840Z,101410.75
2018-08-03T20:04:45.457Z,101411.00
2018-08-03T20:07:13.294Z,101410.03
2018-08-03T20:09:40.563Z,101411.70
2018-08-03T20:12:07.821Z,101405.47
2018-08-03T20:14:35.724Z,101407.34
2018-08-03T20:17:03.316Z,101405.45
2018-08-03T20:19:31.255Z,101408.01
2018-08-03T20:21:58.868Z,101405.94
2018-08-03T20:24:26.120Z,101408.05
2018-08-03T20:26:53.728Z,101412.97
2018-08-03T20:29:21.767Z,101410.69
2018-08-03T20:31:49.618Z,101415.00
2018-08-03T20:34:17.389Z,101410.20
2018-08-03T20:36:45.210Z,101415.98
2018-08-03T20:39:12.876Z,101420.03
2018-08-03T20:41:40.183Z,101417.75
2018-08-03T20:44:07.464Z,101423.22
2018-08-03T20:46:35.265Z,101415.05
2018-08-03T20:49:03.274Z,101417.86
2018-08-03T20:51:30.519Z,101422.73
2018-08-03T20:53:58.013Z,101426.85
2018-08-03T20:56:25.318Z,101425.52
2018-08-03T20:58:53.106Z,101423.20
2018-08-03T21:01:21.204Z,101427.70
2018-08-03T21:03:49.029Z,101427.97
2018-08-03T21:06:16.913Z,101428.84
2018-08-03T21:08:44.642Z,101431.26
2018-08-03T21:11:12.878Z,101429.53
2018-08-03T21:13:40.187Z,101427.89
2018-08-03T21:16:07.330Z,101426.25
2018-08-03T21:18:34.570Z,101425.22
2018-08-03T21:21:01.857Z,101428.16
2018-08-03T21:23:29.201Z,101424.05
2018-08-03T21:25:56.396Z,101426.64
2018-08-03T21:28:24.001Z,101421.55
2018-08-03T21:30:51.581Z,101421.94
2018-08-03T21:33:19.039Z,101417.61
2018-08-03T21:35:47.779Z,101421.55
2018-08-03T21:38:15.881Z,101418.17
2018-08-03T21:40:44.042Z,101420.20
2018-08-03T21:43:11.548Z,101416.91
2018-08-03T21:45:38.741Z,101418.42
2018-08-03T21:48:05.964Z,101419.50
2018-08-03T21:50:34.117Z,101420.97
2018-08-03T21:53:01.784Z,101417.13
2018-08-03T21:55:30.163Z,101414.27
2018-08-03T21:57:57.658Z,101422.08
2018-08-03T22:00:25.028Z,101414.13
2018-08-03T22:02:52.617Z,101417.57
2018-08-03T22:05:19.825Z,101414.50
2018-08-03T22:07:48.016Z,101410.30
2018-08-03T22:10:15.691Z,101412.59
2018-08-03T22:12:43.538Z,101410.55
2018-08-03T22:15:15.675Z,101412.36
2018-08-03T22:17:42.931Z,101410.84
2018-08-03T22:20:10.079Z,101414.08
2018-08-03T22:22:37.374Z,101414.47
2018-08-03T22:25:05.272Z,101407.77
2018-08-03T22:27:32.775Z,101405.17
2018-08-03T22:30:00.767Z,101406.52
2018-08-03T22:32:28.308Z,101408.80
2018-08-03T22:34:55.886Z,101412.97
2018-08-03T22:37:23.402Z,101407.75
2018-08-03T22:39:51.223Z,101405.75
2018-08-03T22:42:19.228Z,101410.08
2018-08-03T22:44:46.530Z,101406.45
2018-08-03T22:47:14.305Z,101402.82
2018-08-03T22:49:41.471Z,101403.79
2018-08-03T22:52:09.129Z,101404.95
2018-08-03T22:54:36.268Z,101405.91
2018-08-03T22:57:03.712Z,101406.86
2018-08-03T22:59:31.424Z,101401.02
2018-08-03T23:01:59.749Z,101405.52
2018-08-03T23:04:28.182Z,101402.06
2018-08-03T23:06:56.215Z,101401.40
2018-08-03T23:09:23.634Z,101398.97
2018-08-03T23:11:51.288Z,101398.31
2018-08-03T23:14:18.919Z,101400.46
2018-08-03T23:16:46.670Z,101396.25
2018-08-03T23:19:14.324Z,101393.27
2018-08-03T23:21:41.948Z,101392.22
2018-08-03T23:24:09.185Z,101390.66
2018-08-03T23:26:36.296Z,101388.03
2018-08-03T23:29:03.952Z,101385.61
2018-08-03T23:31:31.109Z,101388.48
2018-08-03T23:34:00.666Z,101386.52
2018-08-03T23:36:28.256Z,101382.31
2018-08-03T23:38:55.863Z,101380.72
2018-08-03T23:41:23.347Z,101376.50
2018-08-03T23:43:51.250Z,101369.98
2018-08-03T23:46:19.104Z,101370.92
2018-08-03T23:48:49.005Z,101372.94
2018-08-03T23:51:17.898Z,101371.88
2018-08-03T23:53:45.946Z,101361.76
2018-08-03T23:56:14.072Z,101361.92
2018-08-03T23:58:43.620Z,101364.33
